Time;durP1;ratioP1;P1;durP2;ratioP2;P2;SDS_P1;SDS_P2;PMS_P1;PMS_P2;Temp;Humidity;BMP_temperature;BMP_pressure;BME280_temperature;BME280_humidity;BME280_pressure;Samples;Min_cycle;Max_cycle;Signal;HPM_P1;HPM_P2
2021/09/19 00:00:11;;;;;;;10.93;7.00;;;16.10;90.40;;;;;;5031196;28;20026;-64
2021/09/19 00:02:37;;;;;;;11.35;8.00;;;16.10;90.30;;;;;;5031339;28;20022;-64
2021/09/19 00:05:04;;;;;;;12.13;8.48;;;16.10;90.30;;;;;;5031154;28;20044;-63
2021/09/19 00:07:29;;;;;;;12.95;9.43;;;16.00;90.30;;;;;;5031155;28;20051;-64
2021/09/19 00:09:55;;;;;;;11.93;9.05;;;16.00;90.30;;;;;;5031052;28;20465;-64
2021/09/19 00:12:21;;;;;;;13.07;9.10;;;16.00;90.30;;;;;;5031218;28;20025;-64
2021/09/19 00:14:46;;;;;;;11.93;8.65;;;15.90;90.30;;;;;;5031048;28;20384;-63
2021/09/19 00:17:12;;;;;;;10.15;7.70;;;15.90;90.40;;;;;;5031169;28;20392;-64
2021/09/19 00:19:38;;;;;;;9.65;6.82;;;15.80;90.40;;;;;;5031014;28;20033;-63
2021/09/19 00:22:04;;;;;;;9.23;6.65;;;15.70;90.40;;;;;;5029891;28;20099;-63
2021/09/19 00:24:30;;;;;;;7.38;5.57;;;15.70;90.40;;;;;;5033774;28;20057;-64
2021/09/19 00:26:56;;;;;;;7.88;5.70;;;15.70;90.40;;;;;;5034596;28;20060;-64
2021/09/19 00:29:22;;;;;;;8.15;5.90;;;15.60;90.40;;;;;;5034433;28;20068;-64
2021/09/19 00:31:48;;;;;;;10.60;8.05;;;15.60;90.40;;;;;;5034537;28;20026;-65
2021/09/19 00:34:14;;;;;;;10.13;8.65;;;15.60;90.40;;;;;;5034207;28;20113;-64
2021/09/19 00:36:40;;;;;;;9.43;7.72;;;15.60;90.40;;;;;;5034398;28;20105;-64
2021/09/19 00:39:07;;;;;;;10.05;7.95;;;15.50;90.40;;;;;;5034251;28;20373;-64
2021/09/19 00:41:34;;;;;;;10.52;8.05;;;15.40;90.50;;;;;;5034325;28;20044;-64
2021/09/19 00:44:04;;;;;;;9.45;8.07;;;15.40;90.70;;;;;;5034142;28;20056;-64
2021/09/19 00:46:30;;;;;;;9.90;7.85;;;15.30;90.70;;;;;;5034122;28;20068;-66
2021/09/19 00:48:55;;;;;;;9.93;8.20;;;15.30;90.80;;;;;;5034129;28;20026;-64
2021/09/19 00:51:21;;;;;;;9.82;8.77;;;15.20;90.90;;;;;;5034002;28;20049;-63
2021/09/19 00:53:50;;;;;;;10.90;8.77;;;15.20;91.00;;;;;;5033976;28;20036;-63
2021/09/19 00:56:22;;;;;;;10.93;9.13;;;15.10;91.00;;;;;;5034002;28;20036;-64
2021/09/19 00:58:51;;;;;;;10.63;8.63;;;15.10;91.10;;;;;;5033868;28;20032;-64
2021/09/19 01:01:16;;;;;;;9.23;7.30;;;15.10;91.10;;;;;;5034010;28;20033;-64
2021/09/19 01:03:42;;;;;;;9.27;7.60;;;15.00;91.10;;;;;;5033831;28;20091;-64
2021/09/19 01:06:08;;;;;;;8.63;6.90;;;15.00;91.10;;;;;;5033766;28;20384;-63
2021/09/19 01:08:34;;;;;;;9.85;7.70;;;15.00;91.00;;;;;;5033797;28;20040;-64
2021/09/19 01:11:00;;;;;;;8.98;6.82;;;15.00;91.00;;;;;;5033662;28;20082;-64
2021/09/19 01:13:27;;;;;;;8.15;6.15;;;15.00;91.00;;;;;;5033668;28;20479;-64
2021/09/19 01:15:53;;;;;;;9.23;6.90;;;14.90;91.00;;;;;;5033644;28;20021;-63
2021/09/19 01:18:20;;;;;;;8.45;6.93;;;14.90;91.10;;;;;;5033428;28;20025;-64
2021/09/19 01:20:47;;;;;;;9.25;7.20;;;14.80;91.10;;;;;;5033609;28;20117;-64
2021/09/19 01:23:14;;;;;;;8.13;6.30;;;14.80;91.10;;;;;;5033432;28;20053;-64
2021/09/19 01:25:42;;;;;;;8.07;6.57;;;14.80;91.10;;;;;;5033455;28;20028;-64
2021/09/19 01:28:08;;;;;;;9.05;7.13;;;14.70;91.20;;;;;;5033431;28;20092;-64
2021/09/19 01:30:36;;;;;;;8.98;6.90;;;14.70;91.30;;;;;;5033302;28;20029;-64
2021/09/19 01:33:03;;;;;;;8.52;6.63;;;14.70;91.30;;;;;;5033302;28;20472;-65
2021/09/19 01:35:30;;;;;;;8.07;6.28;;;14.70;91.30;;;;;;5033042;28;20396;-64
2021/09/19 01:37:57;;;;;;;7.65;6.03;;;14.60;91.40;;;;;;5033288;28;20567;-64
2021/09/19 01:40:23;;;;;;;8.55;6.57;;;14.60;91.60;;;;;;5033206;28;20025;-64
2021/09/19 01:42:48;;;;;;;9.93;7.40;;;14.60;91.60;;;;;;5033058;28;20492;-64
2021/09/19 01:45:14;;;;;;;9.27;7.35;;;14.60;91.70;;;;;;5033211;28;20048;-65
2021/09/19 01:47:40;;;;;;;8.70;7.07;;;14.60;91.80;;;;;;5033174;28;20033;-64
2021/09/19 01:50:07;;;;;;;9.95;8.40;;;14.60;91.80;;;;;;5033062;28;20033;-64
2021/09/19 01:52:33;;;;;;;16.75;11.43;;;14.60;92.10;;;;;;5032818;28;20127;-64
2021/09/19 01:55:00;;;;;;;26.60;12.43;;;14.60;92.50;;;;;;5033368;28;20029;-64
2021/09/19 01:57:26;;;;;;;21.92;12.27;;;14.60;92.70;;;;;;5033215;28;20136;-64
2021/09/19 01:59:54;;;;;;;17.10;12.02;;;14.60;92.70;;;;;;5032833;28;20029;-64
2021/09/19 02:02:21;;;;;;;52.50;15.05;;;14.70;92.90;;;;;;5033257;28;20026;-64
2021/09/19 02:04:48;;;;;;;28.33;11.98;;;14.70;93.00;;;;;;5033022;28;20450;-64
2021/09/19 02:07:13;;;;;;;57.30;15.18;;;14.70;93.00;;;;;;5032896;28;20037;-63
2021/09/19 02:09:39;;;;;;;31.23;12.63;;;14.70;93.10;;;;;;5032597;28;20027;-64
2021/09/19 02:12:06;;;;;;;35.65;13.30;;;14.70;93.10;;;;;;5032447;28;20025;-64
2021/09/19 02:14:32;;;;;;;36.40;13.60;;;14.70;93.10;;;;;;5032547;28;20113;-65
2021/09/19 02:16:58;;;;;;;20.88;11.88;;;14.80;93.10;;;;;;5032469;28;20096;-64
2021/09/19 02:19:24;;;;;;;39.95;13.27;;;14.70;93.20;;;;;;5032386;28;20441;-64
2021/09/19 02:21:49;;;;;;;17.75;12.68;;;14.80;93.20;;;;;;5032219;28;20049;-64
2021/09/19 02:24:15;;;;;;;13.85;11.77;;;14.80;93.20;;;;;;5032371;28;20083;-64
2021/09/19 02:26:41;;;;;;;17.17;14.23;;;14.80;93.20;;;;;;5032380;28;20021;-64
2021/09/19 02:29:07;;;;;;;17.45;13.80;;;14.80;93.20;;;;;;5032345;28;20032;-63
2021/09/19 02:31:32;;;;;;;16.83;14.00;;;14.90;93.20;;;;;;5032245;28;20029;-64
2021/09/19 02:33:59;;;;;;;18.20;15.07;;;14.90;93.10;;;;;;5032185;28;20492;-63
2021/09/19 02:36:25;;;;;;;16.48;13.45;;;14.90;93.00;;;;;;5032102;28;20104;-63
2021/09/19 02:38:51;;;;;;;14.27;12.77;;;14.90;93.30;;;;;;5032072;28;20443;-64
2021/09/19 02:41:17;;;;;;;13.10;11.52;;;15.00;92.90;;;;;;5032094;28;20105;-64
2021/09/19 02:43:43;;;;;;;12.82;10.85;;;15.00;92.60;;;;;;5031990;28;20026;-64
2021/09/19 02:46:09;;;;;;;12.15;9.45;;;15.00;92.40;;;;;;5031245;28;20033;-65
2021/09/19 02:48:35;;;;;;;10.43;8.52;;;15.00;92.20;;;;;;5031813;28;20057;-63
2021/09/19 02:51:01;;;;;;;9.20;7.43;;;15.00;91.80;;;;;;5031828;28;20034;-64
2021/09/19 02:53:27;;;;;;;7.40;5.80;;;15.00;91.70;;;;;;5032174;28;20041;-64
2021/09/19 02:55:53;;;;;;;8.07;5.80;;;15.00;91.50;;;;;;5032448;28;20104;-63
2021/09/19 02:58:18;;;;;;;8.02;6.00;;;14.90;91.20;;;;;;5031793;28;20059;-63
2021/09/19 03:00:44;;;;;;;6.78;5.60;;;14.80;90.90;;;;;;5031833;28;20025;-64
2021/09/19 03:03:10;;;;;;;6.78;4.60;;;14.80;90.70;;;;;;5031704;28;20022;-64
2021/09/19 03:05:35;;;;;;;6.68;4.75;;;14.70;90.70;;;;;;5031769;28;20456;-64
2021/09/19 03:08:01;;;;;;;6.55;4.90;;;14.60;90.80;;;;;;5031755;28;20100;-63
2021/09/19 03:10:27;;;;;;;6.07;4.65;;;14.60;90.70;;;;;;5031606;28;20061;-64
2021/09/19 03:12:53;;;;;;;6.28;4.45;;;14.60;90.50;;;;;;5031685;28;20030;-64
2021/09/19 03:15:19;;;;;;;5.93;4.38;;;14.50;90.40;;;;;;5031702;28;20361;-65
2021/09/19 03:17:44;;;;;;;5.97;3.88;;;14.50;90.20;;;;;;5031632;28;20032;-65
2021/09/19 03:20:13;;;;;;;5.20;3.53;;;14.50;90.40;;;;;;5031597;28;20021;-64
2021/09/19 03:22:39;;;;;;;5.05;3.42;;;14.40;90.50;;;;;;5031848;28;20029;-64
2021/09/19 03:25:06;;;;;;;5.00;3.28;;;14.40;90.60;;;;;;5031629;28;20029;-64
2021/09/19 03:27:32;;;;;;;5.72;3.35;;;14.40;90.70;;;;;;5031430;28;20021;-64
2021/09/19 03:29:59;;;;;;;5.30;3.40;;;14.50;90.80;;;;;;5031428;28;20109;-64
2021/09/19 03:32:25;;;;;;;5.20;3.30;;;14.50;90.70;;;;;;5031497;28;20018;-64
2021/09/19 03:34:50;;;;;;;5.15;3.22;;;14.50;90.70;;;;;;5031354;28;20064;-64
2021/09/19 03:37:16;;;;;;;5.40;3.63;;;14.50;90.70;;;;;;5031391;28;20120;-64
2021/09/19 03:39:42;;;;;;;5.65;3.72;;;14.60;90.50;;;;;;5031341;28;20116;-64
2021/09/19 03:42:08;;;;;;;5.68;3.70;;;14.60;90.50;;;;;;5031330;28;20057;-64
2021/09/19 03:44:33;;;;;;;5.20;3.38;;;14.60;90.30;;;;;;5031490;28;20447;-63
2021/09/19 03:46:59;;;;;;;5.30;3.53;;;14.60;90.30;;;;;;5031540;28;20044;-64
2021/09/19 03:49:25;;;;;;;5.03;3.35;;;14.50;90.10;;;;;;5031363;28;20104;-64
2021/09/19 03:51:52;;;;;;;5.97;3.70;;;14.50;90.00;;;;;;5031296;28;20065;-65
2021/09/19 03:54:17;;;;;;;5.60;3.97;;;14.50;89.60;;;;;;5031315;28;20030;-64
2021/09/19 03:56:43;;;;;;;5.95;4.35;;;14.50;89.30;;;;;;5031238;28;20144;-67
2021/09/19 03:59:09;;;;;;;5.80;4.00;;;14.40;89.30;;;;;;5034693;28;20033;-66
2021/09/19 04:01:34;;;;;;;4.85;3.30;;;14.40;89.40;;;;;;5034997;28;20051;-64
2021/09/19 04:04:00;;;;;;;5.88;3.92;;;14.40;89.70;;;;;;5034950;28;20422;-65
2021/09/19 04:06:26;;;;;;;5.38;3.40;;;14.40;89.90;;;;;;5034889;28;20051;-64
2021/09/19 04:08:51;;;;;;;4.78;3.25;;;14.40;90.20;;;;;;5034987;28;20465;-64
2021/09/19 04:11:17;;;;;;;5.32;3.50;;;14.40;90.40;;;;;;5034759;28;20030;-64
2021/09/19 04:13:42;;;;;;;5.05;3.47;;;14.50;90.40;;;;;;5034757;28;20646;-65
2021/09/19 04:16:08;;;;;;;5.35;3.45;;;14.50;90.40;;;;;;5034813;28;20554;-65
2021/09/19 04:18:34;;;;;;;5.25;3.22;;;14.60;90.40;;;;;;5034491;28;20030;-65
2021/09/19 04:20:59;;;;;;;4.95;3.03;;;14.70;90.50;;;;;;5034609;28;20029;-64
2021/09/19 04:23:25;;;;;;;5.40;3.42;;;14.80;90.60;;;;;;5034519;28;20031;-64
2021/09/19 04:25:51;;;;;;;4.78;3.03;;;14.80;90.40;;;;;;5034892;28;20036;-64
2021/09/19 04:28:18;;;;;;;4.25;2.60;;;14.90;90.30;;;;;;5034692;28;20040;-64
2021/09/19 04:30:43;;;;;;;5.68;3.20;;;15.00;90.00;;;;;;5034828;28;20083;-65
2021/09/19 04:33:09;;;;;;;4.97;3.17;;;15.00;89.70;;;;;;5034444;28;20103;-65
2021/09/19 04:35:35;;;;;;;5.03;3.20;;;15.00;89.50;;;;;;5034352;28;20395;-64
2021/09/19 04:38:01;;;;;;;4.35;2.72;;;14.90;89.60;;;;;;5034341;28;20460;-64
2021/09/19 04:40:28;;;;;;;4.60;2.70;;;14.90;89.70;;;;;;5034271;28;20381;-64
2021/09/19 04:42:53;;;;;;;5.05;2.70;;;15.00;89.90;;;;;;5033941;28;20037;-64
2021/09/19 04:45:19;;;;;;;4.60;2.75;;;15.00;89.80;;;;;;5034126;28;20049;-65
2021/09/19 04:47:45;;;;;;;4.40;2.70;;;15.00;89.80;;;;;;5033942;28;20041;-64
2021/09/19 04:50:11;;;;;;;4.88;2.80;;;15.00;89.80;;;;;;5033936;28;20071;-65
2021/09/19 04:52:36;;;;;;;4.10;2.30;;;15.10;89.70;;;;;;5033895;28;20407;-65
2021/09/19 04:55:03;;;;;;;5.00;2.65;;;15.10;89.60;;;;;;5033958;28;20036;-64
2021/09/19 04:57:29;;;;;;;4.18;2.65;;;15.10;89.40;;;;;;5033874;28;20029;-64
2021/09/19 04:59:54;;;;;;;4.18;2.30;;;15.10;89.30;;;;;;5033858;28;20100;-64
2021/09/19 05:02:20;;;;;;;4.78;2.80;;;15.10;89.20;;;;;;5033659;28;20025;-65
2021/09/19 05:04:46;;;;;;;4.50;2.40;;;15.20;89.10;;;;;;5033840;28;20025;-64
2021/09/19 05:07:11;;;;;;;5.00;2.70;;;15.20;89.10;;;;;;5033887;28;20017;-66
2021/09/19 05:09:37;;;;;;;4.25;2.60;;;15.20;89.10;;;;;;5033132;28;20021;-65
2021/09/19 05:12:03;;;;;;;5.93;4.40;;;15.20;89.00;;;;;;5033993;28;20439;-64
2021/09/19 05:14:28;;;;;;;6.30;4.20;;;15.30;88.80;;;;;;5033887;28;20064;-65
2021/09/19 05:16:54;;;;;;;5.32;3.65;;;15.30;89.40;;;;;;5033635;28;20026;-65
2021/09/19 05:19:19;;;;;;;4.95;3.28;;;15.40;88.90;;;;;;5033481;28;20080;-65
2021/09/19 05:21:45;;;;;;;4.60;2.80;;;15.50;89.30;;;;;;5033601;28;20388;-65
2021/09/19 05:24:11;;;;;;;4.43;2.65;;;15.60;89.20;;;;;;5033586;28;20060;-64
2021/09/19 05:26:36;;;;;;;6.18;3.65;;;15.70;89.20;;;;;;5033354;28;20526;-65
2021/09/19 05:29:02;;;;;;;5.45;3.60;;;15.90;88.40;;;;;;5033416;28;20059;-64
2021/09/19 05:31:30;;;;;;;5.40;3.75;;;16.00;87.80;;;;;;5033233;28;20083;-64
2021/09/19 05:33:56;;;;;;;5.38;3.33;;;16.20;87.50;;;;;;5033333;28;20419;-66
2021/09/19 05:36:22;;;;;;;17.95;14.98;;;16.40;87.30;;;;;;5033215;28;20060;-66
2021/09/19 05:38:47;;;;;;;10.25;8.18;;;16.60;87.00;;;;;;5033034;28;20538;-66
2021/09/19 05:41:13;;;;;;;7.70;5.70;;;16.70;86.30;;;;;;5033024;28;20396;-64
2021/09/19 05:43:39;;;;;;;6.50;4.78;;;16.80;86.10;;;;;;5033116;28;20423;-65
2021/09/19 05:46:04;;;;;;;6.22;4.22;;;17.00;85.90;;;;;;5032977;28;20017;-66
2021/09/19 05:48:30;;;;;;;5.50;3.60;;;17.10;85.60;;;;;;5032930;28;20087;-66
2021/09/19 05:50:56;;;;;;;5.22;3.35;;;17.10;85.70;;;;;;5031544;28;20029;-66
2021/09/19 05:53:21;;;;;;;5.05;3.38;;;17.20;85.60;;;;;;5032918;28;20033;-65
2021/09/19 05:55:47;;;;;;;9.50;7.32;;;17.30;85.50;;;;;;5033264;28;20483;-65
2021/09/19 05:58:13;;;;;;;8.27;6.38;;;17.40;85.40;;;;;;5032833;28;20481;-66
2021/09/19 06:00:39;;;;;;;8.40;6.50;;;17.50;84.80;;;;;;5032653;28;20024;-66
2021/09/19 06:03:05;;;;;;;8.90;6.40;;;17.60;84.70;;;;;;5032652;28;20210;-66
2021/09/19 06:05:30;;;;;;;8.32;6.55;;;17.80;83.90;;;;;;5032749;28;20018;-66
2021/09/19 06:07:56;;;;;;;9.02;6.65;;;17.90;82.90;;;;;;5032481;28;20088;-66
2021/09/19 06:10:21;;;;;;;7.30;5.95;;;18.00;81.00;;;;;;5032587;28;20033;-66
2021/09/19 06:12:47;;;;;;;7.80;6.00;;;17.90;80.50;;;;;;5032540;28;20048;-66
2021/09/19 06:15:13;;;;;;;7.40;6.07;;;17.90;81.10;;;;;;5032548;28;20392;-67
2021/09/19 06:17:39;;;;;;;7.40;6.10;;;18.00;80.90;;;;;;5032400;28;20445;-65
2021/09/19 06:20:05;;;;;;;8.40;6.63;;;18.00;80.10;;;;;;5032252;28;20029;-68
2021/09/19 06:22:31;;;;;;;9.18;7.45;;;18.00;80.00;;;;;;5030271;28;20027;-66
2021/09/19 06:24:57;;;;;;;9.57;7.25;;;17.90;78.70;;;;;;5032337;28;20100;-66
2021/09/19 06:27:22;;;;;;;8.45;7.32;;;17.90;79.60;;;;;;5032329;28;20129;-67
2021/09/19 06:29:48;;;;;;;8.93;6.90;;;17.90;79.40;;;;;;5032037;28;20040;-66
2021/09/19 06:32:14;;;;;;;7.32;6.07;;;17.90;79.40;;;;;;5032102;28;20035;-67
2021/09/19 06:34:40;;;;;;;7.10;5.68;;;17.80;79.30;;;;;;5032019;28;20052;-66
2021/09/19 06:37:06;;;;;;;7.32;5.55;;;17.80;78.70;;;;;;5032333;28;20041;-66
2021/09/19 06:39:32;;;;;;;7.07;5.68;;;17.70;78.90;;;;;;5032140;28;20559;-67
2021/09/19 06:41:58;;;;;;;7.45;5.72;;;17.60;78.90;;;;;;5032389;28;20065;-67
2021/09/19 06:44:25;;;;;;;5.85;4.72;;;17.50;78.90;;;;;;5031860;28;20120;-66
2021/09/19 06:46:53;;;;;;;7.18;4.68;;;17.50;79.20;;;;;;5031995;28;20466;-66
2021/09/19 06:49:19;;;;;;;7.28;5.13;;;17.50;79.30;;;;;;5032142;28;20060;-67
2021/09/19 06:51:45;;;;;;;8.15;6.43;;;17.50;78.80;;;;;;5031645;28;20069;-67
2021/09/19 06:54:11;;;;;;;6.60;4.72;;;17.40;79.30;;;;;;5031884;28;20052;-65
2021/09/19 06:56:37;;;;;;;7.05;5.03;;;17.50;79.40;;;;;;5031921;28;20026;-67
2021/09/19 06:59:02;;;;;;;7.55;5.85;;;17.50;79.40;;;;;;5031770;28;20640;-67
2021/09/19 07:01:28;;;;;;;8.27;6.60;;;17.60;79.70;;;;;;5031557;28;20014;-66
2021/09/19 07:03:54;;;;;;;8.40;6.20;;;17.70;78.00;;;;;;5031621;28;20029;-67
2021/09/19 07:06:19;;;;;;;9.68;7.28;;;17.60;77.50;;;;;;5031513;28;20026;-66
2021/09/19 07:08:45;;;;;;;9.80;7.72;;;17.60;78.50;;;;;;5031676;28;20025;-66
2021/09/19 07:11:12;;;;;;;9.35;6.57;;;17.70;77.20;;;;;;5031663;28;20030;-67
2021/09/19 07:13:37;;;;;;;9.88;7.95;;;17.70;78.80;;;;;;5031411;28;20057;-66
2021/09/19 07:16:03;;;;;;;9.13;7.47;;;17.80;79.00;;;;;;5031630;28;20107;-67
2021/09/19 07:18:29;;;;;;;8.75;7.25;;;18.00;80.30;;;;;;5031520;28;20032;-66
2021/09/19 07:20:55;;;;;;;9.40;7.38;;;18.10;81.20;;;;;;5031652;28;20029;-66
2021/09/19 07:23:22;;;;;;;10.57;8.50;;;18.30;79.50;;;;;;5031523;28;20381;-65
2021/09/19 07:25:48;;;;;;;11.00;9.30;;;18.40;77.70;;;;;;5031655;28;20025;-65
2021/09/19 07:28:14;;;;;;;10.70;9.15;;;18.60;77.00;;;;;;5031481;28;20022;-67
2021/09/19 07:30:40;;;;;;;10.25;8.25;;;18.80;79.40;;;;;;5031702;28;20111;-66
2021/09/19 07:33:06;;;;;;;9.77;8.40;;;19.10;78.00;;;;;;5033688;28;20518;-66
2021/09/19 07:35:32;;;;;;;8.30;7.22;;;19.30;75.50;;;;;;5035620;28;20041;-67
2021/09/19 07:37:58;;;;;;;9.73;8.07;;;19.50;74.10;;;;;;5035429;28;20036;-66
2021/09/19 07:40:24;;;;;;;8.27;6.72;;;19.70;73.40;;;;;;5035393;28;20027;-67
2021/09/19 07:42:51;;;;;;;6.65;5.57;;;19.80;70.10;;;;;;5035284;28;20463;-67
2021/09/19 07:45:17;;;;;;;8.23;6.35;;;19.90;69.70;;;;;;5035282;28;20358;-66
2021/09/19 07:47:45;;;;;;;8.55;6.75;;;19.90;69.70;;;;;;5035205;28;20033;-67
2021/09/19 07:50:12;;;;;;;7.78;6.85;;;19.90;69.00;;;;;;5035261;28;20029;-67
2021/09/19 07:52:38;;;;;;;7.97;6.60;;;19.80;69.20;;;;;;5035059;28;20049;-66
2021/09/19 07:55:04;;;;;;;7.28;6.43;;;19.90;70.40;;;;;;5035433;28;20033;-66
2021/09/19 07:57:31;;;;;;;7.90;6.05;;;20.00;67.40;;;;;;5035103;28;20030;-65
2021/09/19 07:59:56;;;;;;;8.15;6.20;;;20.10;65.40;;;;;;5035022;28;20532;-68
2021/09/19 08:02:23;;;;;;;8.48;6.05;;;20.10;66.60;;;;;;5035041;28;20108;-66
2021/09/19 08:04:49;;;;;;;7.50;6.40;;;20.00;66.40;;;;;;5034936;28;20473;-67
2021/09/19 08:07:15;;;;;;;6.85;5.57;;;19.90;66.60;;;;;;5035000;28;20033;-67
2021/09/19 08:09:40;;;;;;;7.80;5.28;;;19.80;66.70;;;;;;5034845;28;20513;-66
2021/09/19 08:12:06;;;;;;;6.90;5.22;;;19.70;67.30;;;;;;5034750;28;20106;-65
2021/09/19 08:14:33;;;;;;;6.78;5.38;;;19.60;67.10;;;;;;5034717;28;20023;-67
2021/09/19 08:16:59;;;;;;;10.85;9.20;;;19.50;68.10;;;;;;5034798;28;20026;-66
2021/09/19 08:19:26;;;;;;;8.60;7.38;;;19.50;68.80;;;;;;5034666;28;20389;-66
2021/09/19 08:21:52;;;;;;;7.50;6.22;;;19.70;68.40;;;;;;5034738;28;20100;-66
2021/09/19 08:24:18;;;;;;;6.90;5.45;;;19.70;68.70;;;;;;5034527;28;20455;-66
2021/09/19 08:26:44;;;;;;;6.32;5.00;;;19.90;67.80;;;;;;5034559;28;20047;-66
2021/09/19 08:29:11;;;;;;;7.40;5.95;;;20.00;67.20;;;;;;5034594;28;20064;-66
2021/09/19 08:31:38;;;;;;;7.55;4.70;;;20.10;66.70;;;;;;5033304;28;20035;-67
2021/09/19 08:34:04;;;;;;;6.07;4.63;;;20.20;64.90;;;;;;5034453;28;20083;-66
2021/09/19 08:36:30;;;;;;;6.38;4.20;;;20.10;64.30;;;;;;5034413;28;20086;-67
2021/09/19 08:38:56;;;;;;;6.72;4.32;;;19.90;64.50;;;;;;5034177;28;20029;-66
2021/09/19 08:41:22;;;;;;;6.80;4.85;;;19.70;64.90;;;;;;5032898;28;20032;-67
2021/09/19 08:43:49;;;;;;;7.05;4.90;;;19.70;65.80;;;;;;5033505;28;20392;-66
2021/09/19 08:46:16;;;;;;;5.63;4.35;;;20.00;68.50;;;;;;5034318;28;20543;-66
2021/09/19 08:48:42;;;;;;;5.72;3.90;;;20.80;67.80;;;;;;5034250;28;20041;-68
2021/09/19 08:51:08;;;;;;;5.05;3.67;;;21.70;64.10;;;;;;5034259;28;20025;-67
2021/09/19 08:53:34;;;;;;;5.10;3.80;;;22.40;64.30;;;;;;5034268;28;20021;-67
2021/09/19 08:56:01;;;;;;;4.88;3.30;;;23.00;63.30;;;;;;5034003;28;20456;-68
2021/09/19 08:58:27;;;;;;;5.60;3.47;;;23.60;59.60;;;;;;5033922;28;20034;-68
2021/09/19 09:00:52;;;;;;;4.55;3.22;;;24.10;56.00;;;;;;5033898;28;20063;-66
2021/09/19 09:03:23;;;;;;;4.70;3.35;;;24.20;56.40;;;;;;5033857;28;20379;-67
2021/09/19 09:05:57;;;;;;;4.82;3.35;;;24.40;56.60;;;;;;5034082;28;20384;-67
2021/09/19 09:08:24;;;;;;;4.70;3.05;;;24.60;56.60;;;;;;5033823;28;20083;-67
2021/09/19 09:10:51;;;;;;;5.55;3.30;;;24.80;57.90;;;;;;5033820;28;20108;-68
2021/09/19 09:13:26;;;;;;;4.65;2.85;;;25.40;55.80;;;;;;5033766;28;20103;-68
2021/09/19 09:16:02;;;;;;;4.40;3.08;;;25.50;53.30;;;;;;5033803;28;20071;-67
2021/09/19 09:18:55;;;;;;;4.55;2.80;;;25.40;54.70;;;;;;5033573;28;20491;-67
2021/09/19 09:21:30;;;;;;;4.35;2.85;;;25.80;51.50;;;;;;5032459;28;20033;-68
2021/09/19 09:24:01;;;;;;;4.50;2.78;;;25.60;52.20;;;;;;5033722;28;20033;-65
2021/09/19 09:26:32;;;;;;;4.83;3.10;;;25.50;52.80;;;;;;5033356;28;20025;-68
2021/09/19 09:29:00;;;;;;;5.68;3.20;;;25.30;51.40;;;;;;5033519;28;20030;-67
2021/09/19 09:31:37;;;;;;;5.05;3.40;;;24.70;52.40;;;;;;5033345;28;20029;-70
2021/09/19 09:34:34;;;;;;;4.93;3.65;;;24.40;53.00;;;;;;5033231;28;20116;-67
2021/09/19 09:37:03;;;;;;;5.20;3.50;;;24.00;54.30;;;;;;5032161;28;20049;-66
2021/09/19 09:39:36;;;;;;;5.25;3.20;;;24.30;55.50;;;;;;5032991;28;20021;-68
2021/09/19 09:42:16;;;;;;;4.38;2.88;;;25.00;55.60;;;;;;5033367;28;20021;-65
2021/09/19 09:44:50;;;;;;;5.70;3.10;;;25.90;54.50;;;;;;5033817;28;20096;-66
2021/09/19 09:47:31;;;;;;;4.47;2.90;;;26.90;49.50;;;;;;5033065;28;20022;-68
2021/09/19 09:50:02;;;;;;;4.30;2.80;;;27.10;49.10;;;;;;5031494;28;20029;-67
2021/09/19 09:52:36;;;;;;;5.72;3.25;;;27.10;50.00;;;;;;5032714;28;20177;-68
2021/09/19 09:55:02;;;;;;;4.93;3.38;;;26.60;48.80;;;;;;5032990;28;20029;-69
2021/09/19 09:57:37;;;;;;;4.70;3.15;;;26.20;49.30;;;;;;5032893;28;20427;-68
2021/09/19 10:00:07;;;;;;;4.45;2.90;;;26.10;49.60;;;;;;5032691;28;20028;-67
2021/09/19 10:02:34;;;;;;;5.07;3.10;;;26.40;50.40;;;;;;5032870;28;20026;-65
2021/09/19 10:05:06;;;;;;;5.68;2.92;;;26.60;48.30;;;;;;5032824;28;20049;-68
2021/09/19 10:07:33;;;;;;;5.22;2.80;;;26.20;49.00;;;;;;5032704;28;20116;-67
2021/09/19 10:10:00;;;;;;;4.93;2.80;;;25.90;48.90;;;;;;5032665;28;20572;-66
2021/09/19 10:12:26;;;;;;;5.25;3.13;;;25.20;49.60;;;;;;5032518;28;20025;-67
2021/09/19 10:14:53;;;;;;;5.82;3.40;;;24.80;50.40;;;;;;5032361;28;20076;-65
2021/09/19 10:17:20;;;;;;;4.90;3.17;;;24.40;51.40;;;;;;5032463;28;20018;-67
2021/09/19 10:19:47;;;;;;;4.40;2.90;;;24.10;51.70;;;;;;5032360;28;20486;-65
2021/09/19 10:22:30;;;;;;;4.70;3.10;;;23.90;51.50;;;;;;5032326;28;20029;-67
2021/09/19 10:24:56;;;;;;;4.38;2.72;;;23.80;51.90;;;;;;5032536;28;20026;-67
2021/09/19 10:27:29;;;;;;;4.45;2.80;;;24.30;52.90;;;;;;5032436;28;20021;-65
2021/09/19 10:30:03;;;;;;;4.70;2.78;;;24.70;50.70;;;;;;5032399;28;20064;-66
2021/09/19 10:32:34;;;;;;;5.25;2.47;;;24.60;50.20;;;;;;5032416;28;20036;-66
2021/09/19 10:35:00;;;;;;;3.95;2.20;;;24.30;50.00;;;;;;5032166;28;20033;-65
2021/09/19 10:37:52;;;;;;;3.65;2.20;;;24.20;48.90;;;;;;5032195;28;20387;-67
2021/09/19 10:40:35;;;;;;;3.90;2.17;;;23.80;49.40;;;;;;5032164;28;20034;-67
2021/09/19 10:43:20;;;;;;;4.22;2.40;;;23.60;50.10;;;;;;5032081;28;20026;-67
2021/09/19 10:45:52;;;;;;;4.10;2.50;;;23.40;51.00;;;;;;5032008;28;20022;-66
2021/09/19 10:48:27;;;;;;;4.57;2.40;;;23.20;51.30;;;;;;5031980;28;20049;-67
2021/09/19 10:51:19;;;;;;;4.10;2.50;;;22.90;51.90;;;;;;5031785;28;20483;-66
2021/09/19 10:53:48;;;;;;;3.92;2.30;;;22.70;52.30;;;;;;5030795;28;20053;-67
2021/09/19 10:56:14;;;;;;;3.92;2.25;;;22.50;52.40;;;;;;5031878;28;20075;-67
2021/09/19 10:58:46;;;;;;;4.30;2.60;;;22.50;52.60;;;;;;5031681;28;20052;-66
2021/09/19 11:01:26;;;;;;;4.18;2.40;;;22.50;52.80;;;;;;5031799;28;20033;-68
2021/09/19 11:04:00;;;;;;;4.00;2.40;;;22.50;52.50;;;;;;5031922;28;20013;-66
2021/09/19 11:06:36;;;;;;;4.32;2.50;;;22.50;52.40;;;;;;5031566;28;20075;-68
2021/09/19 11:09:22;;;;;;;4.60;2.10;;;22.70;52.40;;;;;;5030549;28;20025;-66
2021/09/19 11:12:07;;;;;;;3.75;2.10;;;23.70;50.60;;;;;;5031774;28;20025;-66
2021/09/19 11:14:58;;;;;;;3.58;2.05;;;24.80;48.90;;;;;;5031610;28;20029;-67
2021/09/19 11:17:27;;;;;;;4.20;2.20;;;25.50;47.60;;;;;;5031618;28;20033;-67
2021/09/19 11:20:11;;;;;;;2.97;1.83;;;26.20;46.90;;;;;;5031830;28;20037;-67
2021/09/19 11:22:38;;;;;;;3.28;1.80;;;26.70;45.00;;;;;;5031586;28;20017;-66
2021/09/19 11:25:05;;;;;;;3.00;1.70;;;26.90;45.70;;;;;;5031497;28;20036;-66
2021/09/19 11:27:31;;;;;;;2.92;1.80;;;27.40;44.70;;;;;;5031644;28;20045;-67
2021/09/19 11:29:58;;;;;;;3.50;2.00;;;27.40;43.20;;;;;;5031565;28;20477;-67
2021/09/19 11:32:25;;;;;;;3.25;1.75;;;27.00;44.60;;;;;;5031482;28;20044;-66
2021/09/19 11:34:51;;;;;;;3.17;1.80;;;27.20;44.50;;;;;;5031659;28;20479;-67
2021/09/19 11:37:18;;;;;;;3.13;1.77;;;27.80;43.20;;;;;;5030185;28;20025;-67
2021/09/19 11:39:43;;;;;;;3.72;1.80;;;27.30;43.00;;;;;;5030054;28;20427;-66
2021/09/19 11:42:12;;;;;;;2.78;1.70;;;26.60;43.20;;;;;;5031398;28;20029;-67
2021/09/19 11:44:47;;;;;;;3.33;1.80;;;25.90;44.10;;;;;;5031478;28;20044;-68
2021/09/19 11:47:18;;;;;;;4.25;1.95;;;25.30;44.80;;;;;;5031357;28;20022;-67
2021/09/19 11:49:45;;;;;;;3.88;2.20;;;24.70;45.80;;;;;;5031247;28;20022;-66
2021/09/19 11:52:10;;;;;;;3.80;2.10;;;24.30;46.70;;;;;;5031101;28;20107;-67
2021/09/19 11:54:39;;;;;;;3.45;2.05;;;24.10;47.70;;;;;;5031455;28;20033;-65
2021/09/19 11:57:04;;;;;;;4.32;2.45;;;24.00;48.20;;;;;;5031315;28;20033;-67
2021/09/19 11:59:30;;;;;;;4.28;2.00;;;23.90;48.40;;;;;;5031227;28;20029;-66
2021/09/19 12:01:56;;;;;;;3.33;1.80;;;23.80;47.90;;;;;;5031291;28;20083;-66
2021/09/19 12:04:21;;;;;;;3.15;1.80;;;23.60;47.50;;;;;;5031183;28;20021;-67
2021/09/19 12:06:48;;;;;;;3.00;1.73;;;23.30;47.80;;;;;;5031544;28;20033;-67
2021/09/19 12:09:19;;;;;;;3.30;1.70;;;22.90;48.80;;;;;;5031952;28;20025;-65
2021/09/19 12:11:54;;;;;;;2.75;1.65;;;22.80;49.60;;;;;;5031202;28;20026;-65
2021/09/19 12:14:24;;;;;;;2.45;1.50;;;23.30;50.40;;;;;;5031041;28;20036;-67
2021/09/19 12:17:03;;;;;;;3.38;1.70;;;24.20;49.80;;;;;;5031092;28;20112;-68
2021/09/19 12:19:31;;;;;;;3.25;1.90;;;25.50;47.30;;;;;;5033517;28;20029;-68
2021/09/19 12:22:04;;;;;;;3.35;1.77;;;26.60;46.70;;;;;;5034666;28;20025;-67
2021/09/19 12:24:32;;;;;;;2.58;1.35;;;27.50;45.30;;;;;;5034660;28;20447;-67
2021/09/19 12:27:28;;;;;;;2.95;1.63;;;27.60;45.00;;;;;;5034519;28;20108;-67
2021/09/19 12:30:06;;;;;;;2.72;1.60;;;28.00;43.50;;;;;;5034237;28;20042;-67
2021/09/19 12:32:54;;;;;;;2.53;1.50;;;28.40;43.40;;;;;;5034410;28;20026;-66
2021/09/19 12:35:29;;;;;;;2.63;1.60;;;28.20;42.90;;;;;;5034427;28;20499;-66
2021/09/19 12:37:57;;;;;;;3.92;2.05;;;27.70;43.00;;;;;;5034547;28;20033;-66
2021/09/19 12:40:24;;;;;;;3.50;1.83;;;26.70;43.90;;;;;;5034577;28;20029;-66
2021/09/19 12:43:01;;;;;;;3.53;1.98;;;26.00;44.80;;;;;;5034053;28;20027;-66
2021/09/19 12:45:27;;;;;;;2.58;1.58;;;25.20;46.00;;;;;;5033670;28;20037;-66
2021/09/19 12:47:57;;;;;;;4.47;2.40;;;24.60;47.10;;;;;;5032939;28;20087;-66